This is the latest recevied weather packets stored in our database for station/object EA1GHG-11. If no packets are shown the sender has not sent any weather packets the latest 10 day(s).
| Time | Temp. | Humidity | Pressure | Rain* | Wind** | Luminosity | Snow |
|---|---|---|---|---|---|---|---|
| 1788410495 | 13.33° C | 100% | 1026.4 hPa | - | - | - | - |
| 1788410373 | 13.33° C | 100% | 1026.4 hPa | - | - | - | - |
| 1788408873 | 12.78° C | 100% | 1026.3 hPa | - | - | - | - |
| 1788407373 | 13.33° C | 100% | 1026.3 hPa | - | - | - | - |
| 1788405873 | 13.89° C | 100% | 1026.3 hPa | - | - | - | - |
| 1788404378 | 13.89° C | 100% | 1026.4 hPa | - | - | - | - |
| 1788402873 | 14.44° C | 100% | 1026.3 hPa | - | - | - | - |
| 1788402274 | 14.44° C | 100% | 1026.2 hPa | - | - | - | - |
| 1788400774 | 15° C | 100% | 1026.4 hPa | - | - | - | - |
| 1788399308 | 15° C | 100% | 1026.4 hPa | - | - | - | - |
| 1788399273 | 15° C | 100% | 1026.4 hPa | - | - | - | - |
| 1788397773 | 15.56° C | 100% | 1026.5 hPa | - | - | - | - |
| 1788396273 | 15.56° C | 100% | 1026.6 hPa | - | - | - | - |
| 1788394773 | 16.11° C | 100% | 1026.5 hPa | - | - | - | - |
| 1788393273 | 16.11° C | 100% | 1026.5 hPa | - | - | - | - |
| 1788391773 | 17.22° C | 100% | 1026.6 hPa | - | - | - | - |
| 1788390273 | 17.78° C | 100% | 1026.6 hPa | - | - | - | - |
| 1788388773 | 18.33° C | 100% | 1026.6 hPa | - | - | - | - |
| 1788387273 | 18.89° C | 100% | 1026.6 hPa | - | - | - | - |
| 1788385772 | 20° C | 100% | 1026.5 hPa | - | - | - | - |
| 1788384272 | 20.56° C | 100% | 1026.4 hPa | - | - | - | - |
| 1788382772 | 21.11° C | 100% | 1026.4 hPa | - | - | - | - |
| 1788381272 | 21.67° C | 100% | 1026.2 hPa | - | - | - | - |
| 1788365672 | 29.44° C | 50% | 1024.8 hPa | - | - | - | - |
| 1788364172 | 28.89° C | 76% | 1025 hPa | - | - | - | - |
* Rain since midnight (hover to see other rain measurements)
** Current wind speed in m/s (hover to see current wind gust speed)